Hlavní strana
METAR-TAF:

METAR-TAF

Letiště :

Dallas/Fort Worth International Airport

Dallas / Fort Worth, Texas, Spojené státy americké

zeměpisná šířka: 32-53-49N, zeměpisná délka: 097-01-19W, výška: 183 m

Aktuální stav počasí

Zpráva byla vytvořena před 31 minutami, v 15:53 UTC
Západojihozápadní vítr 8 kt
Teplota 33°C
Vlhkost vzduchu 44%
Tlak 1015 hPa
Viditelnost: 16.1 km
Skoro jasno ve výšce 18000 ft
Zataženo ve výšce 30000 ft

METAR: KDFW 181553Z 25008KT 10SM FEW180 OVC300 33/19 A2996 RMK AO2 SLP133 T03330194

Čas: 11:24 (16:24 UTC)

Předpověď počasí

Zpráva byla vytvořena před 1 hodinou a 33 minutami, v 14:51 UTC
Předpověď platná od 18 v 15 UTC do 19 v 18 UTC
Jižní vítr 9 kt
Viditelnost: 10 km
Skoro jasno ve výšce 30000 ft

TAF: KDFW 181451Z 1815/1918 19009KT P6SM FEW300

Stav a předpovědi počasí z více než 4 000 letišť (zprávy METAR a TAF).

Červené a žluté tečky na mapě představují dostupné meteorologické stanice.

Když kurzor umístíte na tečku, zobrazí se název stanice.

Pak kliknutím zobrazíte stav a předpověď počasí.

Chcete-li změnit mapu, kliknutím na zelené tlačítko se znaménkem +mapu přiblížíte, kliknutím na zelené tlačítko se znaménkem – mapu oddálíte a kliknutím na zelené šipky přejdete na sousední mapy.


METAR-TAF: